sensor_id;sensor_type;location;lat;lon;timestamp;P1;durP1;ratioP1;P2;durP2;ratioP2
7025;SDS011;3554;42.132;24.786;2023-05-07T00:00:21;5.73;;;5.33;;
7025;SDS011;3554;42.132;24.786;2023-05-07T00:02:48;4.77;;;4.47;;
7025;SDS011;3554;42.132;24.786;2023-05-07T00:05:14;5.37;;;5.00;;
7025;SDS011;3554;42.132;24.786;2023-05-07T00:07:41;5.47;;;5.00;;
7025;SDS011;3554;42.132;24.786;2023-05-07T00:10:08;4.87;;;4.47;;
7025;SDS011;3554;42.132;24.786;2023-05-07T00:12:38;5.23;;;4.93;;
7025;SDS011;3554;42.132;24.786;2023-05-07T00:15:07;5.03;;;4.73;;
7025;SDS011;3554;42.132;24.786;2023-05-07T00:17:34;6.43;;;5.07;;
7025;SDS011;3554;42.132;24.786;2023-05-07T00:20:01;5.97;;;5.40;;
7025;SDS011;3554;42.132;24.786;2023-05-07T00:22:28;5.73;;;5.23;;
7025;SDS011;3554;42.132;24.786;2023-05-07T00:24:55;5.30;;;4.90;;
7025;SDS011;3554;42.132;24.786;2023-05-07T00:27:22;5.60;;;5.23;;
7025;SDS011;3554;42.132;24.786;2023-05-07T00:29:50;7.20;;;5.20;;
7025;SDS011;3554;42.132;24.786;2023-05-07T00:32:17;5.93;;;5.53;;
7025;SDS011;3554;42.132;24.786;2023-05-07T00:34:44;5.13;;;4.83;;
7025;SDS011;3554;42.132;24.786;2023-05-07T00:37:10;7.77;;;5.50;;
7025;SDS011;3554;42.132;24.786;2023-05-07T00:39:37;4.67;;;4.37;;
7025;SDS011;3554;42.132;24.786;2023-05-07T00:42:04;5.80;;;5.33;;
7025;SDS011;3554;42.132;24.786;2023-05-07T00:44:31;4.90;;;4.50;;
7025;SDS011;3554;42.132;24.786;2023-05-07T00:46:59;6.50;;;5.40;;
7025;SDS011;3554;42.132;24.786;2023-05-07T00:49:31;4.83;;;4.40;;
7025;SDS011;3554;42.132;24.786;2023-05-07T00:52:04;5.17;;;4.87;;
7025;SDS011;3554;42.132;24.786;2023-05-07T00:54:32;4.73;;;4.53;;
7025;SDS011;3554;42.132;24.786;2023-05-07T00:57:00;5.93;;;5.40;;
7025;SDS011;3554;42.132;24.786;2023-05-07T00:59:28;8.13;;;4.93;;
7025;SDS011;3554;42.132;24.786;2023-05-07T01:01:56;6.03;;;4.27;;
7025;SDS011;3554;42.132;24.786;2023-05-07T01:04:24;5.03;;;4.63;;
7025;SDS011;3554;42.132;24.786;2023-05-07T01:06:51;9.20;;;4.80;;
7025;SDS011;3554;42.132;24.786;2023-05-07T01:09:20;4.97;;;4.73;;
7025;SDS011;3554;42.132;24.786;2023-05-07T01:11:48;5.60;;;5.23;;
7025;SDS011;3554;42.132;24.786;2023-05-07T01:14:16;4.77;;;4.47;;
7025;SDS011;3554;42.132;24.786;2023-05-07T01:16:46;5.17;;;4.77;;
7025;SDS011;3554;42.132;24.786;2023-05-07T01:19:13;5.10;;;4.80;;
7025;SDS011;3554;42.132;24.786;2023-05-07T01:21:46;5.70;;;5.20;;
7025;SDS011;3554;42.132;24.786;2023-05-07T01:24:15;5.27;;;4.97;;
7025;SDS011;3554;42.132;24.786;2023-05-07T01:26:42;4.90;;;4.67;;
7025;SDS011;3554;42.132;24.786;2023-05-07T01:29:09;4.77;;;4.57;;
7025;SDS011;3554;42.132;24.786;2023-05-07T01:31:36;5.80;;;5.47;;
7025;SDS011;3554;42.132;24.786;2023-05-07T01:34:05;6.07;;;5.50;;
7025;SDS011;3554;42.132;24.786;2023-05-07T01:36:34;7.50;;;4.97;;
7025;SDS011;3554;42.132;24.786;2023-05-07T01:39:05;5.30;;;5.00;;
7025;SDS011;3554;42.132;24.786;2023-05-07T01:41:34;6.90;;;5.27;;
7025;SDS011;3554;42.132;24.786;2023-05-07T01:44:01;5.83;;;5.27;;
7025;SDS011;3554;42.132;24.786;2023-05-07T01:46:29;5.40;;;5.17;;
7025;SDS011;3554;42.132;24.786;2023-05-07T01:48:57;7.03;;;6.00;;
7025;SDS011;3554;42.132;24.786;2023-05-07T01:51:24;6.53;;;6.23;;
7025;SDS011;3554;42.132;24.786;2023-05-07T01:53:52;7.17;;;6.57;;
7025;SDS011;3554;42.132;24.786;2023-05-07T01:56:19;7.90;;;7.10;;
7025;SDS011;3554;42.132;24.786;2023-05-07T01:58:48;8.07;;;7.47;;
7025;SDS011;3554;42.132;24.786;2023-05-07T02:01:16;7.23;;;6.63;;
7025;SDS011;3554;42.132;24.786;2023-05-07T02:03:43;8.23;;;7.43;;
7025;SDS011;3554;42.132;24.786;2023-05-07T02:06:09;8.77;;;7.60;;
7025;SDS011;3554;42.132;24.786;2023-05-07T02:08:36;9.40;;;8.70;;
7025;SDS011;3554;42.132;24.786;2023-05-07T02:11:03;8.30;;;7.70;;
7025;SDS011;3554;42.132;24.786;2023-05-07T02:13:32;8.93;;;8.23;;
7025;SDS011;3554;42.132;24.786;2023-05-07T02:16:01;8.70;;;8.00;;
7025;SDS011;3554;42.132;24.786;2023-05-07T02:18:28;8.87;;;7.97;;
7025;SDS011;3554;42.132;24.786;2023-05-07T02:20:54;9.33;;;8.27;;
7025;SDS011;3554;42.132;24.786;2023-05-07T02:23:21;8.70;;;8.10;;
7025;SDS011;3554;42.132;24.786;2023-05-07T02:25:48;7.90;;;7.40;;
7025;SDS011;3554;42.132;24.786;2023-05-07T02:28:15;8.13;;;7.63;;
7025;SDS011;3554;42.132;24.786;2023-05-07T02:30:42;7.97;;;7.17;;
7025;SDS011;3554;42.132;24.786;2023-05-07T02:33:10;8.03;;;7.40;;
7025;SDS011;3554;42.132;24.786;2023-05-07T02:35:38;7.13;;;6.57;;
7025;SDS011;3554;42.132;24.786;2023-05-07T02:38:05;7.53;;;6.87;;
7025;SDS011;3554;42.132;24.786;2023-05-07T02:40:32;7.60;;;7.10;;
7025;SDS011;3554;42.132;24.786;2023-05-07T02:43:03;7.90;;;7.33;;
7025;SDS011;3554;42.132;24.786;2023-05-07T02:45:30;8.20;;;7.27;;
7025;SDS011;3554;42.132;24.786;2023-05-07T02:47:57;8.50;;;7.90;;
7025;SDS011;3554;42.132;24.786;2023-05-07T02:50:25;9.23;;;8.20;;
7025;SDS011;3554;42.132;24.786;2023-05-07T02:52:52;8.67;;;7.90;;
7025;SDS011;3554;42.132;24.786;2023-05-07T02:55:19;8.37;;;7.83;;
7025;SDS011;3554;42.132;24.786;2023-05-07T02:57:45;9.13;;;8.43;;
7025;SDS011;3554;42.132;24.786;2023-05-07T03:00:13;8.03;;;7.53;;
7025;SDS011;3554;42.132;24.786;2023-05-07T03:02:41;8.90;;;8.00;;
7025;SDS011;3554;42.132;24.786;2023-05-07T03:05:08;8.57;;;7.70;;
7025;SDS011;3554;42.132;24.786;2023-05-07T03:07:36;8.00;;;7.40;;
7025;SDS011;3554;42.132;24.786;2023-05-07T03:10:03;8.03;;;7.63;;
7025;SDS011;3554;42.132;24.786;2023-05-07T03:12:30;8.37;;;7.60;;
7025;SDS011;3554;42.132;24.786;2023-05-07T03:14:57;8.50;;;7.90;;
7025;SDS011;3554;42.132;24.786;2023-05-07T03:17:24;8.33;;;7.67;;
7025;SDS011;3554;42.132;24.786;2023-05-07T03:19:51;8.60;;;7.83;;
7025;SDS011;3554;42.132;24.786;2023-05-07T03:22:17;8.90;;;8.17;;
7025;SDS011;3554;42.132;24.786;2023-05-07T03:24:46;8.70;;;7.97;;
7025;SDS011;3554;42.132;24.786;2023-05-07T03:27:12;8.07;;;7.57;;
7025;SDS011;3554;42.132;24.786;2023-05-07T03:29:39;9.60;;;8.67;;
7025;SDS011;3554;42.132;24.786;2023-05-07T03:32:06;10.53;;;9.67;;
7025;SDS011;3554;42.132;24.786;2023-05-07T03:34:33;10.10;;;9.10;;
7025;SDS011;3554;42.132;24.786;2023-05-07T03:36:59;10.30;;;9.60;;
7025;SDS011;3554;42.132;24.786;2023-05-07T03:39:26;10.47;;;9.67;;
7025;SDS011;3554;42.132;24.786;2023-05-07T03:41:54;9.40;;;8.73;;
7025;SDS011;3554;42.132;24.786;2023-05-07T03:44:21;9.47;;;8.70;;
7025;SDS011;3554;42.132;24.786;2023-05-07T03:46:48;9.10;;;8.60;;
7025;SDS011;3554;42.132;24.786;2023-05-07T03:49:14;8.50;;;7.80;;
7025;SDS011;3554;42.132;24.786;2023-05-07T03:51:41;9.23;;;8.53;;
7025;SDS011;3554;42.132;24.786;2023-05-07T03:54:08;8.87;;;8.23;;
7025;SDS011;3554;42.132;24.786;2023-05-07T03:56:35;8.60;;;8.00;;
7025;SDS011;3554;42.132;24.786;2023-05-07T03:59:03;8.93;;;8.13;;
7025;SDS011;3554;42.132;24.786;2023-05-07T04:01:30;8.50;;;7.77;;
7025;SDS011;3554;42.132;24.786;2023-05-07T04:03:56;7.93;;;7.17;;
7025;SDS011;3554;42.132;24.786;2023-05-07T04:06:23;7.53;;;7.07;;
7025;SDS011;3554;42.132;24.786;2023-05-07T04:08:50;8.30;;;7.67;;
7025;SDS011;3554;42.132;24.786;2023-05-07T04:11:17;8.23;;;7.60;;
7025;SDS011;3554;42.132;24.786;2023-05-07T04:13:43;9.13;;;8.33;;
7025;SDS011;3554;42.132;24.786;2023-05-07T04:16:11;9.50;;;8.80;;
7025;SDS011;3554;42.132;24.786;2023-05-07T04:18:38;9.00;;;8.03;;
7025;SDS011;3554;42.132;24.786;2023-05-07T04:21:05;8.40;;;7.60;;
7025;SDS011;3554;42.132;24.786;2023-05-07T04:23:32;8.90;;;8.00;;
7025;SDS011;3554;42.132;24.786;2023-05-07T04:25:59;8.07;;;7.50;;
7025;SDS011;3554;42.132;24.786;2023-05-07T04:28:26;7.27;;;6.87;;
7025;SDS011;3554;42.132;24.786;2023-05-07T04:30:52;8.23;;;7.50;;
7025;SDS011;3554;42.132;24.786;2023-05-07T04:33:20;8.17;;;7.67;;
7025;SDS011;3554;42.132;24.786;2023-05-07T04:35:47;8.33;;;7.70;;
7025;SDS011;3554;42.132;24.786;2023-05-07T04:38:14;8.00;;;7.50;;
7025;SDS011;3554;42.132;24.786;2023-05-07T04:40:41;8.87;;;8.17;;
7025;SDS011;3554;42.132;24.786;2023-05-07T04:43:08;9.00;;;7.60;;
7025;SDS011;3554;42.132;24.786;2023-05-07T04:45:35;7.60;;;6.93;;
7025;SDS011;3554;42.132;24.786;2023-05-07T04:48:01;7.67;;;7.07;;
7025;SDS011;3554;42.132;24.786;2023-05-07T04:50:30;8.03;;;7.33;;
7025;SDS011;3554;42.132;24.786;2023-05-07T04:52:57;7.43;;;7.00;;
7025;SDS011;3554;42.132;24.786;2023-05-07T04:55:23;7.63;;;6.80;;
7025;SDS011;3554;42.132;24.786;2023-05-07T04:57:51;8.27;;;7.63;;
7025;SDS011;3554;42.132;24.786;2023-05-07T05:00:18;8.27;;;7.43;;
7025;SDS011;3554;42.132;24.786;2023-05-07T05:02:45;7.50;;;6.80;;
7025;SDS011;3554;42.132;24.786;2023-05-07T05:05:12;7.70;;;7.20;;
7025;SDS011;3554;42.132;24.786;2023-05-07T05:07:40;7.73;;;7.13;;
7025;SDS011;3554;42.132;24.786;2023-05-07T05:10:07;9.77;;;7.40;;
7025;SDS011;3554;42.132;24.786;2023-05-07T05:12:34;7.80;;;7.30;;
7025;SDS011;3554;42.132;24.786;2023-05-07T05:15:00;7.73;;;7.23;;
7025;SDS011;3554;42.132;24.786;2023-05-07T05:17:27;6.40;;;5.97;;
7025;SDS011;3554;42.132;24.786;2023-05-07T05:19:54;8.30;;;7.47;;
7025;SDS011;3554;42.132;24.786;2023-05-07T05:22:21;6.93;;;6.50;;
7025;SDS011;3554;42.132;24.786;2023-05-07T05:24:49;7.73;;;7.03;;
7025;SDS011;3554;42.132;24.786;2023-05-07T05:27:16;8.33;;;7.27;;
7025;SDS011;3554;42.132;24.786;2023-05-07T05:29:43;7.53;;;6.80;;
7025;SDS011;3554;42.132;24.786;2023-05-07T05:32:09;7.13;;;6.43;;
7025;SDS011;3554;42.132;24.786;2023-05-07T05:34:36;5.93;;;5.43;;
7025;SDS011;3554;42.132;24.786;2023-05-07T05:37:03;7.60;;;7.10;;
7025;SDS011;3554;42.132;24.786;2023-05-07T05:39:30;6.97;;;6.47;;
7025;SDS011;3554;42.132;24.786;2023-05-07T05:41:58;6.63;;;6.20;;
7025;SDS011;3554;42.132;24.786;2023-05-07T05:44:24;6.00;;;5.70;;
7025;SDS011;3554;42.132;24.786;2023-05-07T05:46:51;7.23;;;6.70;;
7025;SDS011;3554;42.132;24.786;2023-05-07T05:49:20;7.87;;;7.07;;
7025;SDS011;3554;42.132;24.786;2023-05-07T05:51:46;6.93;;;6.27;;
7025;SDS011;3554;42.132;24.786;2023-05-07T05:54:13;7.53;;;6.93;;
7025;SDS011;3554;42.132;24.786;2023-05-07T05:56:41;7.07;;;6.47;;
7025;SDS011;3554;42.132;24.786;2023-05-07T05:59:09;6.43;;;6.03;;
7025;SDS011;3554;42.132;24.786;2023-05-07T06:01:36;7.20;;;6.57;;
7025;SDS011;3554;42.132;24.786;2023-05-07T06:04:03;6.07;;;5.67;;
7025;SDS011;3554;42.132;24.786;2023-05-07T06:06:30;6.50;;;6.00;;
7025;SDS011;3554;42.132;24.786;2023-05-07T06:08:57;6.07;;;5.70;;
7025;SDS011;3554;42.132;24.786;2023-05-07T06:11:24;6.67;;;6.17;;
7025;SDS011;3554;42.132;24.786;2023-05-07T06:13:51;7.07;;;6.63;;
7025;SDS011;3554;42.132;24.786;2023-05-07T06:16:19;6.10;;;5.60;;
7025;SDS011;3554;42.132;24.786;2023-05-07T06:18:45;5.50;;;5.20;;
7025;SDS011;3554;42.132;24.786;2023-05-07T06:21:13;5.73;;;5.23;;
7025;SDS011;3554;42.132;24.786;2023-05-07T06:23:39;18.87;;;16.33;;
7025;SDS011;3554;42.132;24.786;2023-05-07T06:26:06;8.07;;;7.47;;
7025;SDS011;3554;42.132;24.786;2023-05-07T06:28:33;7.93;;;6.70;;
7025;SDS011;3554;42.132;24.786;2023-05-07T06:31:10;7.23;;;6.57;;
7025;SDS011;3554;42.132;24.786;2023-05-07T06:33:39;7.43;;;6.83;;
7025;SDS011;3554;42.132;24.786;2023-05-07T06:36:06;8.03;;;7.20;;
7025;SDS011;3554;42.132;24.786;2023-05-07T06:38:33;7.80;;;7.20;;
7025;SDS011;3554;42.132;24.786;2023-05-07T06:41:00;7.63;;;6.93;;
7025;SDS011;3554;42.132;24.786;2023-05-07T06:43:26;7.60;;;6.70;;
7025;SDS011;3554;42.132;24.786;2023-05-07T06:45:53;8.30;;;6.43;;
7025;SDS011;3554;42.132;24.786;2023-05-07T06:48:21;7.07;;;6.67;;
7025;SDS011;3554;42.132;24.786;2023-05-07T06:50:49;7.00;;;6.53;;
7025;SDS011;3554;42.132;24.786;2023-05-07T06:53:16;6.80;;;6.40;;
7025;SDS011;3554;42.132;24.786;2023-05-07T06:55:43;6.43;;;5.93;;
7025;SDS011;3554;42.132;24.786;2023-05-07T06:58:09;6.73;;;6.10;;
7025;SDS011;3554;42.132;24.786;2023-05-07T07:00:36;7.60;;;7.13;;
7025;SDS011;3554;42.132;24.786;2023-05-07T07:03:03;6.37;;;6.03;;
7025;SDS011;3554;42.132;24.786;2023-05-07T07:05:30;6.97;;;6.37;;
7025;SDS011;3554;42.132;24.786;2023-05-07T07:07:58;7.60;;;7.13;;
7025;SDS011;3554;42.132;24.786;2023-05-07T07:10:24;10.60;;;7.63;;
7025;SDS011;3554;42.132;24.786;2023-05-07T07:12:51;6.93;;;6.13;;
7025;SDS011;3554;42.132;24.786;2023-05-07T07:15:19;7.40;;;6.90;;
7025;SDS011;3554;42.132;24.786;2023-05-07T07:17:47;6.77;;;6.47;;
7025;SDS011;3554;42.132;24.786;2023-05-07T07:20:14;8.07;;;7.40;;
7025;SDS011;3554;42.132;24.786;2023-05-07T07:22:41;7.47;;;6.70;;
7025;SDS011;3554;42.132;24.786;2023-05-07T07:25:09;7.50;;;6.90;;
7025;SDS011;3554;42.132;24.786;2023-05-07T07:27:37;7.53;;;6.97;;
7025;SDS011;3554;42.132;24.786;2023-05-07T07:30:05;7.53;;;7.13;;
7025;SDS011;3554;42.132;24.786;2023-05-07T07:32:32;7.80;;;7.20;;
7025;SDS011;3554;42.132;24.786;2023-05-07T07:34:59;7.73;;;7.13;;
7025;SDS011;3554;42.132;24.786;2023-05-07T07:37:26;8.93;;;8.03;;
7025;SDS011;3554;42.132;24.786;2023-05-07T07:39:53;9.07;;;8.33;;
7025;SDS011;3554;42.132;24.786;2023-05-07T07:42:21;7.27;;;6.77;;
7025;SDS011;3554;42.132;24.786;2023-05-07T07:44:48;7.57;;;6.83;;
7025;SDS011;3554;42.132;24.786;2023-05-07T07:47:14;7.70;;;7.13;;
7025;SDS011;3554;42.132;24.786;2023-05-07T07:49:41;7.77;;;6.77;;
7025;SDS011;3554;42.132;24.786;2023-05-07T07:52:08;7.03;;;6.53;;
7025;SDS011;3554;42.132;24.786;2023-05-07T07:54:35;9.37;;;7.10;;
7025;SDS011;3554;42.132;24.786;2023-05-07T07:57:01;6.73;;;6.23;;
7025;SDS011;3554;42.132;24.786;2023-05-07T07:59:29;6.83;;;6.23;;
7025;SDS011;3554;42.132;24.786;2023-05-07T08:01:56;6.77;;;6.37;;
7025;SDS011;3554;42.132;24.786;2023-05-07T08:04:23;5.87;;;5.47;;
7025;SDS011;3554;42.132;24.786;2023-05-07T08:06:50;7.20;;;5.37;;
7025;SDS011;3554;42.132;24.786;2023-05-07T08:09:16;6.17;;;5.57;;
7025;SDS011;3554;42.132;24.786;2023-05-07T08:11:43;5.13;;;4.93;;
7025;SDS011;3554;42.132;24.786;2023-05-07T08:14:10;6.10;;;5.53;;
7025;SDS011;3554;42.132;24.786;2023-05-07T08:16:39;5.70;;;5.23;;
7025;SDS011;3554;42.132;24.786;2023-05-07T08:19:05;4.60;;;4.27;;
7025;SDS011;3554;42.132;24.786;2023-05-07T08:21:32;4.13;;;3.73;;
7025;SDS011;3554;42.132;24.786;2023-05-07T08:23:59;4.70;;;4.30;;
7025;SDS011;3554;42.132;24.786;2023-05-07T08:26:26;4.57;;;4.27;;
7025;SDS011;3554;42.132;24.786;2023-05-07T08:28:52;4.83;;;4.53;;
7025;SDS011;3554;42.132;24.786;2023-05-07T08:31:19;5.23;;;4.10;;
7025;SDS011;3554;42.132;24.786;2023-05-07T08:33:47;5.27;;;4.77;;
7025;SDS011;3554;42.132;24.786;2023-05-07T08:36:14;4.03;;;3.83;;
7025;SDS011;3554;42.132;24.786;2023-05-07T08:38:40;4.40;;;4.10;;
7025;SDS011;3554;42.132;24.786;2023-05-07T08:41:09;3.57;;;3.27;;
7025;SDS011;3554;42.132;24.786;2023-05-07T08:43:37;4.17;;;3.77;;
7025;SDS011;3554;42.132;24.786;2023-05-07T08:46:07;6.63;;;3.90;;
7025;SDS011;3554;42.132;24.786;2023-05-07T08:48:36;4.40;;;4.00;;
7025;SDS011;3554;42.132;24.786;2023-05-07T08:51:04;3.97;;;3.77;;
7025;SDS011;3554;42.132;24.786;2023-05-07T08:53:31;4.00;;;3.77;;
7025;SDS011;3554;42.132;24.786;2023-05-07T08:55:59;4.43;;;3.47;;
7025;SDS011;3554;42.132;24.786;2023-05-07T08:58:26;3.43;;;3.13;;
7025;SDS011;3554;42.132;24.786;2023-05-07T09:00:53;3.80;;;3.53;;
7025;SDS011;3554;42.132;24.786;2023-05-07T09:03:20;3.20;;;3.03;;
7025;SDS011;3554;42.132;24.786;2023-05-07T09:05:47;2.90;;;2.80;;
7025;SDS011;3554;42.132;24.786;2023-05-07T09:08:15;3.03;;;2.93;;
7025;SDS011;3554;42.132;24.786;2023-05-07T09:10:42;3.23;;;2.37;;
7025;SDS011;3554;42.132;24.786;2023-05-07T09:13:09;2.17;;;2.07;;
7025;SDS011;3554;42.132;24.786;2023-05-07T09:15:39;2.90;;;2.33;;
7025;SDS011;3554;42.132;24.786;2023-05-07T09:18:06;3.83;;;1.93;;
7025;SDS011;3554;42.132;24.786;2023-05-07T09:20:32;4.57;;;2.70;;
7025;SDS011;3554;42.132;24.786;2023-05-07T09:22:59;21.17;;;2.33;;
7025;SDS011;3554;42.132;24.786;2023-05-07T09:25:31;9.17;;;2.30;;
7025;SDS011;3554;42.132;24.786;2023-05-07T09:27:58;7.10;;;2.60;;
7025;SDS011;3554;42.132;24.786;2023-05-07T09:30:27;4.63;;;3.40;;
7025;SDS011;3554;42.132;24.786;2023-05-07T09:32:56;72.63;;;4.33;;
7025;SDS011;3554;42.132;24.786;2023-05-07T09:35:24;2.50;;;2.30;;
7025;SDS011;3554;42.132;24.786;2023-05-07T09:37:52;3.30;;;2.40;;
7025;SDS011;3554;42.132;24.786;2023-05-07T09:40:21;2.47;;;2.37;;
7025;SDS011;3554;42.132;24.786;2023-05-07T09:42:50;2.80;;;2.60;;
7025;SDS011;3554;42.132;24.786;2023-05-07T09:45:21;2.40;;;2.30;;
7025;SDS011;3554;42.132;24.786;2023-05-07T09:47:48;19.37;;;2.30;;
7025;SDS011;3554;42.132;24.786;2023-05-07T09:50:19;2.23;;;2.13;;
7025;SDS011;3554;42.132;24.786;2023-05-07T09:52:51;2.40;;;2.20;;
7025;SDS011;3554;42.132;24.786;2023-05-07T09:55:18;2.47;;;2.37;;
7025;SDS011;3554;42.132;24.786;2023-05-07T09:57:46;2.80;;;2.60;;
7025;SDS011;3554;42.132;24.786;2023-05-07T10:00:16;2.57;;;2.47;;
7025;SDS011;3554;42.132;24.786;2023-05-07T10:02:44;2.63;;;2.53;;
7025;SDS011;3554;42.132;24.786;2023-05-07T10:05:14;2.80;;;2.70;;
7025;SDS011;3554;42.132;24.786;2023-05-07T10:07:41;31.70;;;3.37;;
7025;SDS011;3554;42.132;24.786;2023-05-07T10:10:08;2.77;;;2.67;;
7025;SDS011;3554;42.132;24.786;2023-05-07T10:12:35;2.37;;;2.17;;
7025;SDS011;3554;42.132;24.786;2023-05-07T10:15:05;2.80;;;2.60;;
7025;SDS011;3554;42.132;24.786;2023-05-07T10:17:36;2.63;;;2.53;;
7025;SDS011;3554;42.132;24.786;2023-05-07T10:20:04;2.40;;;2.30;;
7025;SDS011;3554;42.132;24.786;2023-05-07T10:22:36;5.37;;;3.27;;
7025;SDS011;3554;42.132;24.786;2023-05-07T10:25:05;2.50;;;2.40;;
7025;SDS011;3554;42.132;24.786;2023-05-07T10:27:36;2.20;;;2.10;;
7025;SDS011;3554;42.132;24.786;2023-05-07T10:30:06;2.27;;;2.17;;
7025;SDS011;3554;42.132;24.786;2023-05-07T10:32:45;2.83;;;2.37;;
7025;SDS011;3554;42.132;24.786;2023-05-07T10:35:16;8.73;;;2.47;;
7025;SDS011;3554;42.132;24.786;2023-05-07T10:37:45;3.97;;;2.13;;
7025;SDS011;3554;42.132;24.786;2023-05-07T10:40:12;1.90;;;1.80;;
7025;SDS011;3554;42.132;24.786;2023-05-07T10:42:52;2.00;;;1.90;;
7025;SDS011;3554;42.132;24.786;2023-05-07T10:45:20;2.17;;;2.07;;
7025;SDS011;3554;42.132;24.786;2023-05-07T10:48:08;7.30;;;3.00;;
7025;SDS011;3554;42.132;24.786;2023-05-07T10:50:37;4.57;;;2.63;;
7025;SDS011;3554;42.132;24.786;2023-05-07T10:53:23;2.73;;;2.63;;
7025;SDS011;3554;42.132;24.786;2023-05-07T10:58:52;5.63;;;2.87;;
7025;SDS011;3554;42.132;24.786;2023-05-07T11:04:29;3.07;;;2.80;;
7025;SDS011;3554;42.132;24.786;2023-05-07T11:09:55;2.80;;;2.60;;
7025;SDS011;3554;42.132;24.786;2023-05-07T11:18:16;3.00;;;2.77;;
7025;SDS011;3554;42.132;24.786;2023-05-07T11:20:52;2.57;;;2.43;;
7025;SDS011;3554;42.132;24.786;2023-05-07T11:26:26;2.40;;;2.30;;
7025;SDS011;3554;42.132;24.786;2023-05-07T11:28:54;2.50;;;2.30;;
7025;SDS011;3554;42.132;24.786;2023-05-07T11:31:23;3.13;;;2.80;;
7025;SDS011;3554;42.132;24.786;2023-05-07T11:33:52;2.43;;;2.23;;
7025;SDS011;3554;42.132;24.786;2023-05-07T11:36:21;2.40;;;2.20;;
7025;SDS011;3554;42.132;24.786;2023-05-07T11:38:49;2.60;;;2.40;;
7025;SDS011;3554;42.132;24.786;2023-05-07T11:41:16;3.00;;;2.70;;
7025;SDS011;3554;42.132;24.786;2023-05-07T11:43:54;2.83;;;2.73;;
7025;SDS011;3554;42.132;24.786;2023-05-07T11:46:22;3.20;;;3.00;;
7025;SDS011;3554;42.132;24.786;2023-05-07T11:48:49;3.57;;;3.20;;
7025;SDS011;3554;42.132;24.786;2023-05-07T11:51:19;3.30;;;2.67;;
7025;SDS011;3554;42.132;24.786;2023-05-07T11:53:48;7.73;;;2.50;;
7025;SDS011;3554;42.132;24.786;2023-05-07T11:56:16;2.93;;;2.70;;
7025;SDS011;3554;42.132;24.786;2023-05-07T11:58:44;2.87;;;2.77;;
7025;SDS011;3554;42.132;24.786;2023-05-07T12:01:13;2.10;;;1.90;;
7025;SDS011;3554;42.132;24.786;2023-05-07T12:03:41;2.63;;;2.13;;
7025;SDS011;3554;42.132;24.786;2023-05-07T12:06:10;2.40;;;2.30;;
7025;SDS011;3554;42.132;24.786;2023-05-07T12:08:40;2.83;;;2.73;;
7025;SDS011;3554;42.132;24.786;2023-05-07T12:11:08;3.57;;;2.93;;
7025;SDS011;3554;42.132;24.786;2023-05-07T12:13:36;2.80;;;2.60;;
7025;SDS011;3554;42.132;24.786;2023-05-07T12:16:03;3.03;;;2.83;;
7025;SDS011;3554;42.132;24.786;2023-05-07T12:18:32;3.13;;;2.93;;
7025;SDS011;3554;42.132;24.786;2023-05-07T12:21:00;2.70;;;2.40;;
7025;SDS011;3554;42.132;24.786;2023-05-07T12:23:27;2.50;;;2.30;;
7025;SDS011;3554;42.132;24.786;2023-05-07T12:25:56;2.80;;;2.70;;
7025;SDS011;3554;42.132;24.786;2023-05-07T12:28:23;3.03;;;2.90;;
7025;SDS011;3554;42.132;24.786;2023-05-07T12:30:50;3.53;;;2.73;;
7025;SDS011;3554;42.132;24.786;2023-05-07T12:33:17;2.70;;;2.50;;
7025;SDS011;3554;42.132;24.786;2023-05-07T12:35:46;2.80;;;2.60;;
7025;SDS011;3554;42.132;24.786;2023-05-07T12:38:14;3.30;;;3.00;;
7025;SDS011;3554;42.132;24.786;2023-05-07T12:40:43;3.43;;;2.70;;
7025;SDS011;3554;42.132;24.786;2023-05-07T12:43:16;2.67;;;2.47;;
7025;SDS011;3554;42.132;24.786;2023-05-07T12:45:44;2.33;;;2.20;;
7025;SDS011;3554;42.132;24.786;2023-05-07T12:48:12;2.57;;;2.47;;
7025;SDS011;3554;42.132;24.786;2023-05-07T12:50:39;2.47;;;2.37;;
7025;SDS011;3554;42.132;24.786;2023-05-07T12:53:06;2.80;;;2.60;;
7025;SDS011;3554;42.132;24.786;2023-05-07T12:55:40;2.50;;;2.40;;
7025;SDS011;3554;42.132;24.786;2023-05-07T12:58:08;2.73;;;2.43;;
7025;SDS011;3554;42.132;24.786;2023-05-07T13:00:43;2.87;;;2.60;;
7025;SDS011;3554;42.132;24.786;2023-05-07T13:03:10;1.90;;;1.80;;
7025;SDS011;3554;42.132;24.786;2023-05-07T13:05:37;2.67;;;2.50;;
7025;SDS011;3554;42.132;24.786;2023-05-07T13:08:05;3.23;;;2.30;;
7025;SDS011;3554;42.132;24.786;2023-05-07T13:10:34;2.67;;;2.47;;
7025;SDS011;3554;42.132;24.786;2023-05-07T13:13:01;2.60;;;2.50;;
7025;SDS011;3554;42.132;24.786;2023-05-07T13:15:28;2.30;;;2.20;;
7025;SDS011;3554;42.132;24.786;2023-05-07T13:17:56;2.10;;;2.00;;
7025;SDS011;3554;42.132;24.786;2023-05-07T13:20:23;2.60;;;2.40;;
7025;SDS011;3554;42.132;24.786;2023-05-07T13:22:50;3.03;;;2.30;;
7025;SDS011;3554;42.132;24.786;2023-05-07T13:25:17;2.27;;;2.17;;
7025;SDS011;3554;42.132;24.786;2023-05-07T13:27:44;2.23;;;2.03;;
7025;SDS011;3554;42.132;24.786;2023-05-07T13:30:11;2.03;;;1.93;;
7025;SDS011;3554;42.132;24.786;2023-05-07T13:32:38;3.13;;;2.07;;
7025;SDS011;3554;42.132;24.786;2023-05-07T13:35:06;2.50;;;2.37;;
7025;SDS011;3554;42.132;24.786;2023-05-07T13:37:34;3.07;;;2.20;;
7025;SDS011;3554;42.132;24.786;2023-05-07T13:40:01;2.27;;;2.17;;
7025;SDS011;3554;42.132;24.786;2023-05-07T13:42:28;2.70;;;2.03;;
7025;SDS011;3554;42.132;24.786;2023-05-07T13:44:55;2.57;;;2.37;;
7025;SDS011;3554;42.132;24.786;2023-05-07T13:47:22;6.77;;;2.83;;
7025;SDS011;3554;42.132;24.786;2023-05-07T13:49:49;4.60;;;1.80;;
7025;SDS011;3554;42.132;24.786;2023-05-07T13:52:18;1.83;;;1.73;;
7025;SDS011;3554;42.132;24.786;2023-05-07T13:54:46;1.83;;;1.73;;
7025;SDS011;3554;42.132;24.786;2023-05-07T13:57:13;2.00;;;1.80;;
7025;SDS011;3554;42.132;24.786;2023-05-07T13:59:40;2.00;;;1.90;;
7025;SDS011;3554;42.132;24.786;2023-05-07T14:02:07;1.87;;;1.77;;
7025;SDS011;3554;42.132;24.786;2023-05-07T14:04:34;2.13;;;2.03;;
7025;SDS011;3554;42.132;24.786;2023-05-07T14:07:00;2.00;;;1.90;;
7025;SDS011;3554;42.132;24.786;2023-05-07T14:09:28;3.97;;;2.00;;
7025;SDS011;3554;42.132;24.786;2023-05-07T14:11:55;2.00;;;1.90;;
7025;SDS011;3554;42.132;24.786;2023-05-07T14:14:22;2.83;;;1.80;;
7025;SDS011;3554;42.132;24.786;2023-05-07T14:16:49;2.17;;;2.00;;
7025;SDS011;3554;42.132;24.786;2023-05-07T14:19:15;3.07;;;1.73;;
7025;SDS011;3554;42.132;24.786;2023-05-07T14:21:42;2.37;;;2.17;;
7025;SDS011;3554;42.132;24.786;2023-05-07T14:24:09;1.60;;;1.50;;
7025;SDS011;3554;42.132;24.786;2023-05-07T14:26:37;3.03;;;1.87;;
7025;SDS011;3554;42.132;24.786;2023-05-07T14:29:04;1.80;;;1.70;;
7025;SDS011;3554;42.132;24.786;2023-05-07T14:31:31;1.83;;;1.73;;
7025;SDS011;3554;42.132;24.786;2023-05-07T14:33:58;2.03;;;1.93;;
7025;SDS011;3554;42.132;24.786;2023-05-07T14:36:25;1.90;;;1.67;;
7025;SDS011;3554;42.132;24.786;2023-05-07T14:38:52;2.03;;;1.90;;
7025;SDS011;3554;42.132;24.786;2023-05-07T14:41:19;1.83;;;1.73;;
7025;SDS011;3554;42.132;24.786;2023-05-07T14:43:48;1.90;;;1.73;;
7025;SDS011;3554;42.132;24.786;2023-05-07T14:46:16;2.00;;;1.80;;
7025;SDS011;3554;42.132;24.786;2023-05-07T14:48:43;1.70;;;1.60;;
7025;SDS011;3554;42.132;24.786;2023-05-07T14:51:11;1.90;;;1.80;;
7025;SDS011;3554;42.132;24.786;2023-05-07T14:53:38;1.90;;;1.70;;
7025;SDS011;3554;42.132;24.786;2023-05-07T14:56:04;1.87;;;1.77;;
7025;SDS011;3554;42.132;24.786;2023-05-07T14:58:31;1.83;;;1.73;;
7025;SDS011;3554;42.132;24.786;2023-05-07T15:01:00;5.43;;;1.80;;
7025;SDS011;3554;42.132;24.786;2023-05-07T15:03:27;1.70;;;1.70;;
7025;SDS011;3554;42.132;24.786;2023-05-07T15:05:54;4.30;;;1.83;;
7025;SDS011;3554;42.132;24.786;2023-05-07T15:08:21;1.80;;;1.70;;
7025;SDS011;3554;42.132;24.786;2023-05-07T15:10:48;2.87;;;1.80;;
7025;SDS011;3554;42.132;24.786;2023-05-07T15:13:15;5.17;;;1.77;;
7025;SDS011;3554;42.132;24.786;2023-05-07T15:15:42;1.50;;;1.40;;
7025;SDS011;3554;42.132;24.786;2023-05-07T15:18:11;3.90;;;1.83;;
7025;SDS011;3554;42.132;24.786;2023-05-07T15:20:37;1.97;;;1.70;;